createdAt,value
2022-08-17T00:00:44.135Z,90.79
2022-08-17T00:05:48.838Z,90.47
2022-08-17T00:10:56.422Z,90.71
2022-08-17T00:16:08.275Z,91.53
2022-08-17T00:21:15.028Z,91.92
2022-08-17T00:26:38.782Z,91.47
2022-08-17T00:31:47.200Z,91.78
2022-08-17T00:36:52.669Z,91.96
2022-08-17T00:41:58.057Z,91.91
2022-08-17T00:47:03.432Z,91.79
2022-08-17T00:52:15.522Z,91.67
2022-08-17T00:57:24.845Z,91.78
2022-08-17T01:02:41.693Z,91.64
2022-08-17T01:07:50.843Z,91.84
2022-08-17T01:12:56.864Z,92.10
2022-08-17T01:18:02.759Z,92.45
2022-08-17T01:23:08.282Z,92.35
2022-08-17T01:28:33.622Z,92.67
2022-08-17T01:33:39.387Z,92.86
2022-08-17T01:38:44.767Z,93.38
2022-08-17T01:43:53.774Z,93.12
2022-08-17T01:48:59.698Z,93.11
2022-08-17T01:54:08.682Z,93.17
2022-08-17T01:59:14.525Z,93.28
2022-08-17T02:04:20.718Z,93.22
2022-08-17T02:09:29.911Z,93.34
2022-08-17T02:14:36.042Z,93.34
2022-08-17T02:19:41.821Z,93.88
2022-08-17T02:24:59.509Z,94.12
2022-08-17T02:30:59.656Z,94.94
2022-08-17T02:35:37.178Z,95.24
2022-08-17T02:40:42.977Z,95.53
2022-08-17T02:45:51.600Z,95.27
2022-08-17T02:50:58.015Z,95.31
2022-08-17T02:56:03.810Z,94.98
2022-08-17T03:01:10.928Z,94.80
2022-08-17T03:06:16.685Z,94.67
2022-08-17T03:11:22.071Z,94.43
2022-08-17T03:16:27.410Z,95.09
2022-08-17T03:21:32.923Z,96.92
2022-08-17T03:26:38.520Z,97.16
2022-08-17T03:31:43.826Z,97.44
2022-08-17T03:36:49.413Z,97.76
2022-08-17T03:41:55.206Z,97.28
2022-08-17T03:47:19.046Z,97.02
2022-08-17T03:53:00.070Z,96.85
2022-08-17T03:58:05.977Z,97.06
2022-08-17T04:03:11.319Z,96.54
2022-08-17T04:08:16.864Z,96.15
2022-08-17T04:13:24.251Z,95.95
2022-08-17T04:18:30.923Z,95.78
2022-08-17T04:23:41.637Z,95.26
2022-08-17T04:28:48.605Z,95.58
2022-08-17T04:33:56.419Z,95.31
2022-08-17T04:39:02.441Z,93.93
2022-08-17T04:44:07.986Z,90.29
2022-08-17T04:49:13.972Z,85.19
2022-08-17T04:54:22.114Z,80.35
2022-08-17T04:59:27.566Z,76.40
2022-08-17T05:04:35.338Z,72.14
2022-08-17T05:09:41.248Z,68.79
2022-08-17T05:14:46.593Z,65.17
2022-08-17T05:19:52.222Z,62.17
2022-08-17T05:25:01.942Z,60.80
2022-08-17T05:30:10.014Z,63.23
2022-08-17T05:35:16.411Z,65.12
2022-08-17T05:40:37.925Z,66.78
2022-08-17T05:51:53.460Z,66.81
2022-08-17T05:57:35.761Z,60.44
2022-08-17T06:03:01.774Z,55.95
2022-08-17T06:08:38.320Z,54.74
2022-08-17T06:14:28.723Z,54.25
2022-08-17T06:19:53.065Z,51.20
2022-08-17T06:25:19.372Z,47.94
2022-08-17T06:30:59.218Z,42.77
2022-08-17T06:36:10.324Z,40.00
2022-08-17T06:41:31.398Z,38.31
2022-08-17T06:46:41.799Z,36.76
2022-08-17T06:51:52.049Z,36.11
2022-08-17T06:57:10.707Z,36.66
2022-08-17T07:02:29.399Z,36.17
2022-08-17T07:08:03.079Z,38.25
2022-08-17T07:13:27.497Z,40.84
2022-08-17T07:18:34.189Z,41.61
2022-08-17T07:23:56.757Z,44.08
2022-08-17T07:29:02.466Z,45.72
2022-08-17T07:34:14.682Z,47.52
2022-08-17T07:39:28.119Z,44.86
2022-08-17T07:44:46.883Z,41.59
2022-08-17T07:49:52.366Z,37.01
2022-08-17T07:54:58.054Z,35.28
2022-08-17T08:00:29.148Z,32.93
2022-08-17T08:05:54.251Z,30.37
2022-08-17T08:11:04.941Z,29.92
2022-08-17T08:16:29.591Z,28.90
2022-08-17T08:21:44.193Z,27.76
2022-08-17T08:26:58.129Z,28.61
2022-08-17T08:32:14.041Z,30.80
2022-08-17T08:37:36.858Z,31.66
2022-08-17T08:42:49.056Z,30.15
2022-08-17T08:48:23.055Z,29.85
2022-08-17T08:53:49.191Z,30.07
2022-08-17T08:59:20.363Z,29.57
2022-08-17T09:05:14.254Z,29.99
2022-08-17T09:11:03.476Z,29.69
2022-08-17T09:16:42.294Z,30.56
2022-08-17T09:22:14.051Z,31.02
2022-08-17T09:27:51.590Z,33.21
2022-08-17T09:33:24.076Z,34.65
2022-08-17T09:39:19.955Z,33.89
2022-08-17T09:45:16.411Z,33.20
2022-08-17T09:51:05.454Z,32.13
2022-08-17T09:56:46.073Z,32.01
2022-08-17T10:02:06.001Z,32.45
2022-08-17T10:07:25.573Z,34.11
2022-08-17T10:12:39.273Z,36.29
2022-08-17T10:18:15.988Z,37.79
2022-08-17T10:23:46.145Z,38.95
2022-08-17T10:28:58.615Z,40.20
2022-08-17T10:34:27.075Z,41.76
2022-08-17T10:39:51.822Z,41.88
2022-08-17T10:45:03.747Z,40.36
2022-08-17T10:50:59.958Z,39.71
2022-08-17T10:56:23.153Z,37.59
2022-08-17T11:01:59.731Z,36.84
2022-08-17T11:07:14.613Z,33.55
2022-08-17T11:12:37.750Z,33.04
2022-08-17T11:18:10.246Z,32.44
2022-08-17T11:23:48.552Z,31.28
2022-08-17T11:29:01.341Z,31.32
2022-08-17T11:34:26.388Z,32.62
2022-08-17T11:40:01.904Z,32.53
2022-08-17T11:45:33.114Z,34.15
2022-08-17T11:51:13.610Z,36.08
2022-08-17T11:56:42.811Z,36.81
2022-08-17T12:02:00.139Z,38.22
2022-08-17T12:07:14.742Z,38.91
2022-08-17T12:12:29.694Z,40.98
2022-08-17T12:17:40.193Z,40.21
2022-08-17T12:22:56.675Z,39.71
2022-08-17T12:28:04.827Z,39.19
2022-08-17T12:33:25.769Z,39.30
2022-08-17T12:38:38.147Z,41.07
2022-08-17T12:43:44.725Z,42.08
2022-08-17T12:48:59.293Z,42.54
2022-08-17T12:54:06.214Z,42.50
2022-08-17T12:59:12.503Z,41.94
2022-08-17T13:04:20.468Z,40.22
2022-08-17T13:09:36.082Z,38.87
2022-08-17T13:14:48.344Z,38.35
2022-08-17T13:19:54.756Z,39.14
2022-08-17T13:25:05.449Z,38.81
2022-08-17T13:30:19.748Z,39.94
2022-08-17T13:35:39.994Z,41.15
2022-08-17T13:40:54.089Z,40.48
2022-08-17T13:46:11.008Z,41.57
2022-08-17T13:51:35.748Z,42.12
2022-08-17T13:56:51.732Z,43.06
2022-08-17T14:01:57.364Z,43.73
2022-08-17T14:07:23.015Z,44.70
2022-08-17T14:12:31.782Z,44.38
2022-08-17T14:17:39.142Z,45.84
2022-08-17T14:22:49.627Z,44.93
2022-08-17T14:27:56.003Z,44.65
2022-08-17T14:33:02.252Z,43.72
2022-08-17T14:38:07.960Z,43.24
2022-08-17T14:43:15.663Z,43.92
2022-08-17T14:48:21.885Z,43.33
2022-08-17T14:53:27.448Z,44.01
2022-08-17T14:58:32.872Z,43.56
2022-08-17T15:03:38.927Z,44.02
2022-08-17T15:17:45.276Z,43.02
2022-08-17T15:22:55.440Z,43.45
2022-08-17T15:28:02.046Z,43.60
2022-08-17T15:33:07.526Z,43.23
2022-08-17T15:38:13.412Z,43.60
2022-08-17T15:43:26.663Z,44.39
2022-08-17T15:48:41.887Z,45.39
2022-08-17T15:53:50.331Z,46.34
2022-08-17T15:58:56.896Z,47.20
2022-08-17T16:04:06.535Z,47.92
2022-08-17T16:09:13.204Z,48.68
2022-08-17T16:14:18.656Z,49.14
2022-08-17T16:19:24.809Z,49.90
2022-08-17T16:24:31.297Z,49.97
2022-08-17T16:29:37.869Z,50.46
2022-08-17T16:34:43.844Z,51.17
2022-08-17T16:39:50.480Z,51.45
2022-08-17T16:45:00.856Z,52.04
2022-08-17T16:50:06.411Z,52.38
2022-08-17T16:55:13.149Z,53.52
2022-08-17T17:00:20.906Z,53.56
2022-08-17T17:05:42.265Z,53.96
2022-08-17T17:10:50.923Z,54.46
2022-08-17T17:16:00.935Z,54.71
2022-08-17T17:21:10.373Z,55.59
2022-08-17T17:26:32.202Z,56.22
2022-08-17T17:31:48.116Z,57.22
2022-08-17T17:36:57.605Z,57.62
2022-08-17T17:42:07.744Z,58.54
2022-08-17T17:47:15.047Z,59.18
2022-08-17T17:52:29.148Z,59.99
2022-08-17T17:57:50.284Z,60.52
2022-08-17T18:03:09.413Z,61.20
2022-08-17T18:08:34.021Z,62.26
2022-08-17T18:13:53.881Z,63.48
2022-08-17T18:19:00.334Z,63.69
2022-08-17T18:24:07.829Z,64.22
2022-08-17T18:29:39.315Z,65.40
2022-08-17T18:34:50.220Z,66.34
2022-08-17T18:39:55.835Z,66.90
2022-08-17T18:45:01.329Z,68.01
2022-08-17T18:55:39.707Z,69.43
2022-08-17T19:00:47.678Z,69.85
2022-08-17T19:05:56.227Z,70.63
2022-08-17T19:11:05.750Z,71.19
2022-08-17T19:16:18.197Z,71.85
2022-08-17T19:21:27.232Z,72.38
2022-08-17T19:26:53.661Z,73.05
2022-08-17T19:32:01.591Z,73.62
2022-08-17T19:37:14.080Z,74.04
2022-08-17T19:42:30.269Z,74.42
2022-08-17T19:47:54.823Z,75.32
2022-08-17T19:53:33.210Z,75.99
2022-08-17T19:58:58.173Z,76.63
2022-08-17T20:04:12.922Z,77.45
2022-08-17T20:09:24.960Z,78.03
2022-08-17T20:14:53.462Z,78.78
2022-08-17T20:20:19.779Z,79.13
2022-08-17T20:25:35.592Z,78.94
2022-08-17T20:30:43.043Z,78.99
2022-08-17T20:36:11.729Z,79.36
2022-08-17T20:41:20.913Z,79.45
2022-08-17T20:46:47.623Z,80.05
2022-08-17T20:52:01.002Z,80.48
2022-08-17T20:57:14.026Z,80.59
2022-08-17T21:02:23.925Z,80.75
2022-08-17T21:07:33.156Z,80.97
2022-08-17T21:13:04.465Z,81.07
2022-08-17T21:18:16.425Z,81.51
2022-08-17T21:23:57.385Z,81.55
2022-08-17T21:29:30.451Z,82.32
2022-08-17T21:34:42.453Z,82.32
2022-08-17T21:39:52.794Z,82.98
2022-08-17T21:45:01.463Z,83.97
2022-08-17T21:50:19.388Z,84.42
2022-08-17T21:55:28.350Z,84.63
2022-08-17T22:00:35.012Z,84.54
2022-08-17T22:05:41.319Z,84.76
2022-08-17T22:10:50.624Z,84.46
2022-08-17T22:16:15.213Z,84.38
2022-08-17T22:21:22.714Z,84.25
2022-08-17T22:27:00.082Z,84.18
2022-08-17T22:32:05.959Z,84.36
2022-08-17T22:37:29.225Z,84.33
2022-08-17T22:42:42.074Z,84.41
2022-08-17T22:47:48.926Z,84.26
2022-08-17T22:53:21.929Z,84.59
2022-08-17T22:58:58.824Z,84.90
2022-08-17T23:04:08.227Z,85.36
2022-08-17T23:09:13.572Z,85.87
2022-08-17T23:14:20.598Z,85.94
2022-08-17T23:19:27.304Z,86.18
2022-08-17T23:24:40.570Z,86.18
2022-08-17T23:29:47.061Z,86.25
2022-08-17T23:34:52.322Z,86.36
2022-08-17T23:39:57.771Z,86.56
2022-08-17T23:45:03.447Z,86.66
2022-08-17T23:50:10.259Z,86.73
2022-08-17T23:55:15.872Z,87.12
